createdAt,value
2019-06-08T00:00:58.201Z,23.08
2019-06-08T00:03:28.976Z,23.08
2019-06-08T00:05:59.585Z,23.08
2019-06-08T00:08:30.235Z,23.06
2019-06-08T00:11:00.998Z,23.02
2019-06-08T00:13:32.356Z,22.98
2019-06-08T00:16:03.007Z,22.95
2019-06-08T00:18:34.165Z,22.91
2019-06-08T00:21:04.890Z,22.89
2019-06-08T00:23:35.799Z,22.86
2019-06-08T00:26:06.643Z,22.78
2019-06-08T00:28:37.296Z,22.78
2019-06-08T00:31:08.108Z,22.70
2019-06-08T00:33:39.005Z,22.65
2019-06-08T00:36:09.542Z,22.59
2019-06-08T00:38:40.181Z,22.57
2019-06-08T00:41:11.392Z,22.55
2019-06-08T00:43:42.092Z,22.53
2019-06-08T00:46:12.780Z,22.50
2019-06-08T00:48:46.271Z,22.48
2019-06-08T00:51:16.761Z,22.44
2019-06-08T00:53:46.026Z,22.41
2019-06-08T00:56:15.351Z,22.42
2019-06-08T00:58:44.626Z,22.40
2019-06-08T01:01:13.934Z,22.39
2019-06-08T01:03:43.747Z,22.37
2019-06-08T01:06:13.499Z,22.38
2019-06-08T01:08:42.615Z,22.38
2019-06-08T01:11:12.003Z,22.39
2019-06-08T01:13:41.390Z,22.38
2019-06-08T01:16:10.923Z,22.37
2019-06-08T01:18:40.285Z,22.42
2019-06-08T01:21:09.439Z,22.43
2019-06-08T01:23:38.757Z,22.46
2019-06-08T01:26:08.033Z,22.49
2019-06-08T01:28:37.258Z,22.51
2019-06-08T01:31:06.603Z,22.53
2019-06-08T01:33:36.306Z,22.57
2019-06-08T01:36:05.838Z,22.61
2019-06-08T01:38:35.571Z,22.62
2019-06-08T01:41:04.972Z,22.62
2019-06-08T01:43:33.980Z,22.64
2019-06-08T01:46:03.305Z,22.63
2019-06-08T01:48:32.429Z,22.65
2019-06-08T01:51:01.587Z,22.68
2019-06-08T01:53:31.186Z,22.73
2019-06-08T01:56:00.489Z,22.73
2019-06-08T01:58:29.574Z,22.76
2019-06-08T02:00:58.733Z,22.82
2019-06-08T02:03:28.154Z,22.85
2019-06-08T02:05:57.361Z,22.88
2019-06-08T02:08:26.625Z,22.93
2019-06-08T02:10:55.815Z,23.00
2019-06-08T02:13:25.056Z,23.07
2019-06-08T02:15:54.381Z,23.19
2019-06-08T02:18:36.476Z,23.30
2019-06-08T02:20:55.350Z,23.48
2019-06-08T02:23:25.180Z,23.68
2019-06-08T02:25:54.274Z,23.88
2019-06-08T02:28:24.196Z,24.06
2019-06-08T02:30:53.593Z,24.26
2019-06-08T02:33:22.717Z,24.46
2019-06-08T02:35:51.839Z,24.62
2019-06-08T02:38:20.940Z,24.76
2019-06-08T02:40:50.022Z,24.88
2019-06-08T02:43:19.292Z,24.97
2019-06-08T02:45:48.264Z,25.02
2019-06-08T02:48:17.290Z,25.06
2019-06-08T02:50:56.754Z,25.07
2019-06-08T02:53:29.611Z,25.04
2019-06-08T02:55:58.739Z,25.03
2019-06-08T02:58:29.250Z,25.02
2019-06-08T03:01:00.029Z,25.01
2019-06-08T03:03:31.695Z,25.02
2019-06-08T03:06:03.488Z,25.03
2019-06-08T03:08:36.364Z,25.03
2019-06-08T03:11:06.393Z,25.05
2019-06-08T03:13:37.870Z,25.09
2019-06-08T03:16:06.775Z,25.13
2019-06-08T03:18:38.176Z,25.15
2019-06-08T03:21:07.438Z,25.20
2019-06-08T03:23:38.642Z,25.22
2019-06-08T03:26:07.569Z,25.25
2019-06-08T03:28:37.741Z,25.30
2019-06-08T03:31:08.175Z,25.33
2019-06-08T03:33:45.412Z,25.38
2019-06-08T03:36:08.545Z,25.43
2019-06-08T03:38:39.923Z,25.47
2019-06-08T03:41:09.021Z,25.51
2019-06-08T03:43:40.759Z,25.52
2019-06-08T03:46:09.195Z,25.59
2019-06-08T03:48:40.040Z,25.66
2019-06-08T03:51:09.256Z,25.73
2019-06-08T03:53:40.058Z,25.84
2019-06-08T03:56:09.676Z,25.93
2019-06-08T03:58:40.666Z,26.03
2019-06-08T04:01:10.169Z,26.10
2019-06-08T04:03:40.012Z,26.15
2019-06-08T04:06:09.573Z,26.22
2019-06-08T04:08:40.199Z,26.31
2019-06-08T04:11:09.020Z,26.38
2019-06-08T04:13:39.780Z,26.46
2019-06-08T04:16:09.562Z,26.52
2019-06-08T04:18:40.265Z,26.56
2019-06-08T04:21:09.540Z,26.59
2019-06-08T04:23:40.575Z,26.63
2019-06-08T04:26:09.637Z,26.72
2019-06-08T04:28:40.514Z,26.78
2019-06-08T04:31:09.958Z,26.87
2019-06-08T04:33:40.273Z,26.95
2019-06-08T04:36:09.968Z,27.00
2019-06-08T04:38:41.195Z,27.04
2019-06-08T04:41:10.283Z,27.10
2019-06-08T04:43:40.415Z,27.16
2019-06-08T04:46:10.384Z,27.22
2019-06-08T04:48:43.149Z,27.29
2019-06-08T04:51:13.054Z,27.36
2019-06-08T04:53:43.258Z,27.42
2019-06-08T04:56:13.662Z,27.47
2019-06-08T04:58:45.996Z,27.53
2019-06-08T05:01:13.703Z,27.60
2019-06-08T05:03:45.608Z,27.63
2019-06-08T05:06:15.919Z,27.67
2019-06-08T05:08:49.609Z,27.74
2019-06-08T05:11:19.367Z,27.78
2019-06-08T05:13:49.711Z,27.84
2019-06-08T05:16:19.526Z,27.89
2019-06-08T05:18:49.690Z,27.94
2019-06-08T05:21:19.135Z,27.99
2019-06-08T05:23:57.926Z,28.06
2019-06-08T05:26:19.589Z,28.11
2019-06-08T05:28:49.564Z,28.17
2019-06-08T05:31:19.323Z,28.24
2019-06-08T05:33:49.757Z,28.27
2019-06-08T05:36:19.178Z,28.33
2019-06-08T05:38:49.676Z,28.42
2019-06-08T05:41:19.285Z,28.43
2019-06-08T05:43:49.798Z,28.47
2019-06-08T05:46:19.387Z,28.53
2019-06-08T05:48:50.359Z,28.59
2019-06-08T05:51:19.702Z,28.64
2019-06-08T05:53:50.119Z,28.70
2019-06-08T05:56:19.882Z,28.74
2019-06-08T05:58:50.334Z,28.76
2019-06-08T06:01:19.998Z,28.81
2019-06-08T06:03:51.823Z,28.84
2019-06-08T06:06:24.808Z,28.85
2019-06-08T06:08:53.886Z,28.90
2019-06-08T06:11:22.731Z,28.96
2019-06-08T06:13:51.710Z,29.02
2019-06-08T06:16:20.795Z,29.05
2019-06-08T06:18:51.977Z,29.13
2019-06-08T06:21:23.922Z,29.15
2019-06-08T06:23:54.533Z,29.15
2019-06-08T06:26:27.703Z,29.33
2019-06-08T06:28:58.879Z,29.33
2019-06-08T06:31:31.256Z,29.35
2019-06-08T06:34:00.726Z,29.36
2019-06-08T06:36:29.994Z,29.42
2019-06-08T06:39:01.649Z,29.49
2019-06-08T06:41:32.139Z,29.55
2019-06-08T06:44:02.466Z,29.63
2019-06-08T06:46:31.896Z,29.74
2019-06-08T06:49:01.362Z,29.82
2019-06-08T06:51:33.900Z,29.86
2019-06-08T06:54:04.494Z,29.91
2019-06-08T06:56:33.921Z,30.02
2019-06-08T06:59:03.192Z,30.13
2019-06-08T07:01:32.930Z,30.16
2019-06-08T07:04:02.540Z,30.24
2019-06-08T07:06:31.800Z,30.28
2019-06-08T07:09:01.708Z,30.39
2019-06-08T07:11:32.799Z,30.45
2019-06-08T07:14:02.140Z,30.48
2019-06-08T07:16:31.261Z,30.56
2019-06-08T07:19:07.560Z,30.64
2019-06-08T07:21:42.023Z,30.73
2019-06-08T07:24:11.081Z,30.83
2019-06-08T07:26:40.916Z,30.89
2019-06-08T07:29:12.200Z,30.93
2019-06-08T07:31:41.039Z,30.90
2019-06-08T07:34:12.882Z,30.90
2019-06-08T07:36:41.835Z,30.92
2019-06-08T07:39:10.888Z,30.92
2019-06-08T07:41:41.315Z,30.92
2019-06-08T07:44:11.495Z,30.94
2019-06-08T07:46:41.722Z,30.94
2019-06-08T07:49:10.668Z,30.98
2019-06-08T07:51:58.657Z,30.99
2019-06-08T07:54:17.224Z,31.02
2019-06-08T07:56:46.363Z,31.08
2019-06-08T07:59:15.493Z,31.21
2019-06-08T08:01:53.987Z,31.41
2019-06-08T08:04:31.375Z,31.56
2019-06-08T08:07:02.708Z,31.82
2019-06-08T08:09:32.496Z,31.98
2019-06-08T08:12:01.670Z,32.09
2019-06-08T08:14:30.929Z,32.18
2019-06-08T08:17:00.284Z,32.28
2019-06-08T08:19:29.561Z,32.46
2019-06-08T08:22:18.593Z,32.56
2019-06-08T08:24:42.943Z,32.67
2019-06-08T08:29:58.706Z,32.86
2019-06-08T08:32:23.199Z,32.98
2019-06-08T08:34:53.763Z,33.05
2019-06-08T08:37:23.006Z,33.08
2019-06-08T08:39:53.541Z,33.15
2019-06-08T08:42:22.680Z,33.22
2019-06-08T08:44:52.622Z,33.30
2019-06-08T08:47:21.751Z,33.33
2019-06-08T08:49:52.155Z,33.39
2019-06-08T08:52:34.470Z,33.42
2019-06-08T08:55:02.276Z,33.48
2019-06-08T08:57:41.168Z,33.55
2019-06-08T09:00:08.613Z,33.55
2019-06-08T09:02:38.440Z,33.52
2019-06-08T09:05:10.777Z,33.49
2019-06-08T09:07:39.613Z,33.44
2019-06-08T09:10:11.552Z,33.42
2019-06-08T09:12:48.592Z,33.43
2019-06-08T09:15:19.362Z,33.33
2019-06-08T09:17:52.102Z,33.18
2019-06-08T09:20:21.751Z,33.04
2019-06-08T09:23:01.928Z,32.95
2019-06-08T09:25:27.896Z,32.92
2019-06-08T09:28:00.535Z,32.83
2019-06-08T09:30:30.291Z,32.74
2019-06-08T09:33:00.949Z,32.73
2019-06-08T09:35:32.091Z,32.74
2019-06-08T09:38:04.800Z,32.71
2019-06-08T09:40:32.870Z,32.86
2019-06-08T09:43:07.420Z,32.98
2019-06-08T09:45:33.100Z,33.04
2019-06-08T09:48:04.467Z,33.01
2019-06-08T09:50:32.602Z,32.97
2019-06-08T09:53:14.909Z,32.87
2019-06-08T09:55:32.583Z,32.85
2019-06-08T09:58:05.024Z,32.88
2019-06-08T10:00:32.624Z,32.88
2019-06-08T10:03:04.326Z,32.92
2019-06-08T10:05:32.712Z,32.91
2019-06-08T10:08:02.888Z,32.95
2019-06-08T10:10:32.754Z,32.99
2019-06-08T10:13:05.394Z,32.99
2019-06-08T10:15:32.902Z,33.00
2019-06-08T10:18:03.292Z,33.07
2019-06-08T10:20:33.031Z,33.14
2019-06-08T10:23:05.127Z,33.29
2019-06-08T10:25:33.469Z,33.46
2019-06-08T10:28:10.160Z,33.61
2019-06-08T10:30:34.417Z,33.77
2019-06-08T10:33:07.774Z,33.96
2019-06-08T10:35:38.233Z,34.05
2019-06-08T10:38:11.716Z,34.05
2019-06-08T10:41:04.836Z,34.10
2019-06-08T10:43:29.121Z,34.06
2019-06-08T10:46:04.934Z,34.02
2019-06-08T10:48:30.739Z,34.03
2019-06-08T10:51:02.310Z,34.07
2019-06-08T10:53:42.432Z,34.13
2019-06-08T10:56:01.719Z,34.15
2019-06-08T10:58:32.045Z,34.16
2019-06-08T11:01:04.182Z,34.25
2019-06-08T11:03:31.849Z,34.34
2019-06-08T11:06:03.210Z,34.41
2019-06-08T11:08:31.967Z,34.48
2019-06-08T11:11:01.566Z,34.64
2019-06-08T11:13:32.012Z,34.91
2019-06-08T11:16:02.780Z,35.22
2019-06-08T11:18:34.134Z,35.77
2019-06-08T11:21:03.736Z,36.62
2019-06-08T11:23:35.602Z,37.37
2019-06-08T11:26:13.538Z,36.79
2019-06-08T11:28:38.163Z,36.13
2019-06-08T11:31:19.570Z,35.49
2019-06-08T11:33:52.406Z,34.93
2019-06-08T11:36:21.475Z,34.52
2019-06-08T11:38:50.354Z,34.23
2019-06-08T11:41:22.691Z,33.98
2019-06-08T11:43:52.092Z,33.80
2019-06-08T11:46:28.184Z,33.61
2019-06-08T11:49:01.165Z,33.44
2019-06-08T11:51:29.810Z,33.29
2019-06-08T11:54:00.644Z,33.12
2019-06-08T11:56:30.863Z,33.00
2019-06-08T11:59:01.252Z,32.88
2019-06-08T12:01:41.788Z,32.75
2019-06-08T12:04:18.367Z,32.61
2019-06-08T12:06:50.073Z,32.53
2019-06-08T12:09:21.892Z,32.41
2019-06-08T12:11:52.485Z,32.28
2019-06-08T12:14:21.811Z,32.16
2019-06-08T12:16:50.847Z,32.06
2019-06-08T12:19:20.909Z,31.98
2019-06-08T12:21:50.688Z,31.92
2019-06-08T12:24:23.465Z,31.83
2019-06-08T12:26:58.895Z,31.55
2019-06-08T12:29:23.966Z,31.21
2019-06-08T12:31:53.175Z,31.02
2019-06-08T12:34:22.465Z,30.91
2019-06-08T12:36:51.391Z,30.91
2019-06-08T12:39:21.446Z,30.88
2019-06-08T12:41:50.894Z,30.95
2019-06-08T12:44:22.177Z,30.99
2019-06-08T12:46:51.205Z,31.04
2019-06-08T12:49:20.719Z,31.02
2019-06-08T12:51:51.776Z,31.00
2019-06-08T12:54:21.106Z,30.99
2019-06-08T12:56:50.391Z,30.92
2019-06-08T12:59:22.785Z,30.83
2019-06-08T13:01:50.458Z,30.74
2019-06-08T13:04:23.125Z,30.66
2019-06-08T13:06:52.047Z,30.56
2019-06-08T13:09:23.221Z,30.47
2019-06-08T13:11:52.282Z,30.40
2019-06-08T13:14:21.617Z,30.32
2019-06-08T13:16:52.981Z,30.27
2019-06-08T13:19:22.428Z,30.22
2019-06-08T13:21:51.692Z,30.16
2019-06-08T13:24:20.960Z,30.12
2019-06-08T13:26:50.844Z,30.05
2019-06-08T13:29:21.937Z,30.05
2019-06-08T13:31:50.496Z,30.00
2019-06-08T13:34:23.926Z,29.99
2019-06-08T13:36:51.727Z,29.95
2019-06-08T13:39:23.109Z,29.91
2019-06-08T13:41:52.689Z,29.87
2019-06-08T13:44:22.452Z,29.86
2019-06-08T13:46:51.521Z,29.88
2019-06-08T13:49:26.748Z,29.93
2019-06-08T13:51:52.162Z,29.99
2019-06-08T13:54:22.768Z,30.09
2019-06-08T13:56:52.064Z,30.21
2019-06-08T13:59:24.951Z,30.36
2019-06-08T14:01:53.918Z,31.52
2019-06-08T14:04:23.737Z,32.32
2019-06-08T14:06:53.578Z,33.27
2019-06-08T14:09:23.331Z,34.68
2019-06-08T14:11:55.019Z,35.02
2019-06-08T14:14:26.079Z,34.70
2019-06-08T14:16:58.659Z,34.31
2019-06-08T14:19:31.263Z,34.02
2019-06-08T14:21:58.642Z,33.79
2019-06-08T14:24:33.871Z,33.76
2019-06-08T14:26:58.557Z,34.64
2019-06-08T14:29:28.887Z,34.59
2019-06-08T14:31:58.495Z,34.29
2019-06-08T14:34:29.822Z,34.07
2019-06-08T14:36:59.573Z,33.87
2019-06-08T14:39:31.041Z,33.66
2019-06-08T14:41:59.227Z,34.11
2019-06-08T14:44:32.112Z,34.76
2019-06-08T14:47:03.240Z,36.03
2019-06-08T14:49:34.860Z,37.12
2019-06-08T14:52:03.016Z,37.99
2019-06-08T14:54:35.024Z,38.50
2019-06-08T14:57:03.011Z,39.11
2019-06-08T14:59:32.139Z,39.58
2019-06-08T15:02:01.225Z,39.99
2019-06-08T15:04:35.983Z,40.45
2019-06-08T15:07:01.184Z,40.83
2019-06-08T15:09:30.179Z,41.12
2019-06-08T15:12:00.177Z,41.04
2019-06-08T15:14:34.978Z,40.92
2019-06-08T15:17:00.052Z,40.73
2019-06-08T15:19:32.037Z,40.48
2019-06-08T15:22:00.506Z,39.60
2019-06-08T15:24:31.337Z,38.88
2019-06-08T15:27:00.324Z,38.68
2019-06-08T15:29:30.946Z,38.59
2019-06-08T15:32:00.229Z,38.74
2019-06-08T15:34:31.405Z,38.84
2019-06-08T15:36:59.943Z,38.61
2019-06-08T15:39:32.676Z,37.92
2019-06-08T15:42:00.399Z,37.20
2019-06-08T15:44:31.568Z,36.45
2019-06-08T15:47:03.272Z,35.83
2019-06-08T15:49:33.850Z,35.24
2019-06-08T15:52:05.948Z,34.67
2019-06-08T15:54:40.670Z,34.12
2019-06-08T15:57:09.177Z,33.64
2019-06-08T15:59:41.821Z,33.24
2019-06-08T16:02:11.092Z,32.82
2019-06-08T16:04:41.909Z,32.45
2019-06-08T16:07:11.994Z,32.18
2019-06-08T16:09:43.854Z,31.93
2019-06-08T16:12:16.808Z,31.73
2019-06-08T16:14:48.787Z,31.52
2019-06-08T16:17:17.771Z,31.33
2019-06-08T16:19:46.722Z,31.15
2019-06-08T16:22:15.826Z,31.02
2019-06-08T16:24:45.859Z,30.87
2019-06-08T16:27:18.163Z,30.72
2019-06-08T16:29:47.533Z,30.58
2019-06-08T16:32:18.128Z,30.45
2019-06-08T16:34:47.981Z,30.34
2019-06-08T16:37:16.976Z,30.25
2019-06-08T16:39:46.785Z,30.16
2019-06-08T16:42:18.970Z,30.05
2019-06-08T16:44:51.339Z,29.92
2019-06-08T16:47:21.096Z,29.78
2019-06-08T16:49:51.642Z,29.65
2019-06-08T16:52:30.755Z,29.51
2019-06-08T16:55:21.471Z,29.40
2019-06-08T16:57:53.672Z,29.29
2019-06-08T17:00:36.257Z,29.18
2019-06-08T17:03:13.778Z,29.09
2019-06-08T17:05:42.631Z,28.96
2019-06-08T17:08:14.535Z,28.81
2019-06-08T17:10:44.950Z,28.65
2019-06-08T17:13:17.865Z,28.47
2019-06-08T17:15:51.157Z,28.31
2019-06-08T17:18:25.517Z,28.15
2019-06-08T17:20:55.014Z,27.97
2019-06-08T17:23:25.860Z,27.80
2019-06-08T17:25:55.143Z,27.64
2019-06-08T17:28:26.085Z,27.51
2019-06-08T17:30:56.540Z,27.40
2019-06-08T17:33:31.084Z,27.30
2019-06-08T17:36:00.437Z,27.24
2019-06-08T17:38:29.808Z,27.13
2019-06-08T17:40:59.055Z,27.06
2019-06-08T17:43:32.218Z,26.96
2019-06-08T17:46:02.156Z,26.84
2019-06-08T17:48:32.355Z,26.98
2019-06-08T17:51:01.413Z,26.70
2019-06-08T17:53:35.174Z,26.63
2019-06-08T17:56:04.677Z,26.56
2019-06-08T17:58:35.111Z,26.54
2019-06-08T18:01:04.481Z,26.48
2019-06-08T18:03:34.090Z,26.42
2019-06-08T18:06:07.148Z,26.39
2019-06-08T18:08:36.789Z,26.41
2019-06-08T18:11:08.073Z,26.38
2019-06-08T18:13:40.496Z,26.42
2019-06-08T18:16:11.147Z,26.50
2019-06-08T18:18:44.297Z,26.55
2019-06-08T18:21:17.572Z,26.60
2019-06-08T18:23:48.698Z,26.58
2019-06-08T18:26:19.924Z,26.60
2019-06-08T18:28:55.159Z,26.61
2019-06-08T18:31:29.350Z,26.65
2019-06-08T18:34:02.057Z,26.67
2019-06-08T18:36:32.674Z,26.61
2019-06-08T18:39:07.219Z,26.56
2019-06-08T18:41:40.753Z,26.47
2019-06-08T18:44:11.268Z,26.39
2019-06-08T18:46:43.231Z,26.33
2019-06-08T18:49:14.081Z,26.27
2019-06-08T18:51:46.266Z,26.18
2019-06-08T18:54:18.835Z,26.13
2019-06-08T18:56:49.807Z,26.09
2019-06-08T18:59:20.677Z,26.07
2019-06-08T19:01:52.577Z,26.10
2019-06-08T19:04:23.760Z,26.12
2019-06-08T19:06:54.330Z,26.16
2019-06-08T19:09:25.840Z,26.17
2019-06-08T19:11:57.443Z,26.20
2019-06-08T19:14:28.640Z,26.15
2019-06-08T19:16:59.883Z,26.11
2019-06-08T19:19:31.665Z,26.10
2019-06-08T19:22:02.803Z,26.02
2019-06-08T19:24:34.797Z,26.02
2019-06-08T19:27:04.696Z,25.95
2019-06-08T19:29:35.395Z,25.91
2019-06-08T19:32:07.421Z,25.84
2019-06-08T19:34:40.811Z,25.76
2019-06-08T19:37:10.366Z,25.70
2019-06-08T19:39:44.153Z,25.65
2019-06-08T19:42:17.410Z,25.61
2019-06-08T19:44:59.627Z,25.58
2019-06-08T19:47:19.618Z,25.53
2019-06-08T19:49:54.440Z,25.48
2019-06-08T19:52:22.642Z,25.48
2019-06-08T19:54:58.145Z,25.48
2019-06-08T19:57:28.218Z,25.44
2019-06-08T20:00:00.414Z,25.41
2019-06-08T20:02:30.713Z,25.31
2019-06-08T20:05:00.970Z,25.24
2019-06-08T20:07:31.570Z,25.16
2019-06-08T20:10:02.156Z,25.08
2019-06-08T20:12:33.375Z,25.05
2019-06-08T20:15:04.389Z,25.00
2019-06-08T20:17:39.160Z,25.01
2019-06-08T20:20:11.173Z,25.01
2019-06-08T20:22:41.941Z,25.02
2019-06-08T20:25:12.518Z,25.01
2019-06-08T20:27:43.328Z,25.00
2019-06-08T20:30:14.121Z,24.99
2019-06-08T20:32:50.800Z,24.93
2019-06-08T20:35:19.897Z,24.90
2019-06-08T20:37:50.034Z,24.95
2019-06-08T20:40:24.013Z,24.80
2019-06-08T20:42:58.383Z,24.77
2019-06-08T20:45:28.758Z,24.72
2019-06-08T20:47:58.980Z,24.65
2019-06-08T20:50:29.353Z,24.61
2019-06-08T20:53:03.030Z,24.57
2019-06-08T20:55:41.087Z,24.52
2019-06-08T20:58:08.462Z,24.44
2019-06-08T21:00:44.041Z,24.39
2019-06-08T21:03:17.529Z,24.13
2019-06-08T21:06:02.313Z,24.13
2019-06-08T21:08:32.814Z,24.18
2019-06-08T21:11:03.332Z,24.11
2019-06-08T21:13:51.194Z,24.10
2019-06-08T21:16:20.104Z,24.09
2019-06-08T21:18:50.875Z,24.02
2019-06-08T21:21:21.568Z,23.99
2019-06-08T21:23:54.753Z,23.95
2019-06-08T21:26:25.106Z,24.01
2019-06-08T21:29:00.140Z,24.06
2019-06-08T21:31:28.644Z,24.12
2019-06-08T21:34:00.864Z,24.09
2019-06-08T21:36:32.116Z,24.05
2019-06-08T21:39:03.017Z,24.00
2019-06-08T21:41:38.008Z,23.98
2019-06-08T21:44:09.313Z,23.93
2019-06-08T21:46:40.063Z,23.93
2019-06-08T21:49:13.817Z,23.86
2019-06-08T21:51:48.532Z,23.76
2019-06-08T21:54:19.175Z,23.67
2019-06-08T21:56:51.599Z,23.57
2019-06-08T21:59:22.114Z,23.51
2019-06-08T22:01:53.473Z,23.46
2019-06-08T22:04:24.315Z,23.43
2019-06-08T22:06:59.632Z,23.38
2019-06-08T22:09:29.495Z,23.29
2019-06-08T22:12:00.990Z,23.23
2019-06-08T22:14:32.698Z,23.17
2019-06-08T22:17:07.666Z,23.12
2019-06-08T22:19:38.022Z,23.07
2019-06-08T22:22:11.165Z,23.02
2019-06-08T22:24:51.854Z,22.96
2019-06-08T22:27:24.177Z,22.93
2019-06-08T22:29:58.573Z,22.92
2019-06-08T22:32:29.933Z,22.93
2019-06-08T22:35:01.809Z,22.93
2019-06-08T22:37:33.086Z,22.93
2019-06-08T22:40:03.864Z,22.94
2019-06-08T22:42:34.354Z,22.91
2019-06-08T22:45:05.385Z,22.89
2019-06-08T22:47:38.477Z,22.91
2019-06-08T22:50:09.049Z,22.87
2019-06-08T22:52:39.745Z,22.91
2019-06-08T22:55:11.165Z,22.91
2019-06-08T22:57:41.997Z,22.96
2019-06-08T23:00:17.236Z,23.03
2019-06-08T23:02:44.148Z,23.10
2019-06-08T23:05:14.925Z,23.17
2019-06-08T23:07:45.199Z,23.22
2019-06-08T23:10:17.459Z,23.22
2019-06-08T23:12:48.164Z,23.16
2019-06-08T23:15:19.077Z,23.11
2019-06-08T23:17:49.670Z,23.02
2019-06-08T23:20:20.111Z,22.94
2019-06-08T23:22:50.511Z,22.90
2019-06-08T23:25:21.306Z,22.88
2019-06-08T23:27:52.119Z,22.87
2019-06-08T23:30:22.923Z,22.86
2019-06-08T23:32:53.375Z,22.84
2019-06-08T23:35:24.159Z,22.80
2019-06-08T23:37:54.665Z,22.77
2019-06-08T23:40:27.277Z,22.73
2019-06-08T23:42:58.507Z,22.69
2019-06-08T23:45:28.492Z,22.66
2019-06-08T23:48:01.067Z,22.64
2019-06-08T23:50:31.345Z,22.64
2019-06-08T23:53:02.391Z,22.65
2019-06-08T23:55:33.293Z,22.65
2019-06-08T23:58:05.012Z,22.64
